Nearby METAR Reports

 

KBAX - Bad Axe, Michigan, USA
Distance from station: ESE 22mi, 35km
Updated: Wed, 31-Dec-1969 7:00pm EST
NOT Current
unable to load KBAX data RC=
unable to load KBAX data RC=
 
KFNT - Flint, Michigan, USA
Distance from station: SSW 68mi, 109km
Updated: Sun, 21-Jan-2018 10:53am EST
Mist, Overcast
Mist, Overcast
 Wind from SSW
Wind: SSW 5 mph , 7 km/h
Temperature: 37°F , 3°C
Wind Chill: 33°F , 1°C
Dew Point: 36°F , 2°C
Humidity: 93%
Barometer: 30.06 inHg , 1017.9 hPa
Summary: Mist
Clouds: Overcast
Visibility: 5 miles , 8 km
Cloud details: Overcast 2300 ft
2018/01/21 15:53 KFNT 211553Z 20004KT 5SM BR OVC023 03/02 A3006 RMK AO2 SLP185 T00280017
KMBS - Saginaw, Michigan, USA
Distance from station: SW 44mi, 70km
Updated: Sun, 21-Jan-2018 11:43am EST
Mist, Overcast
Mist, Overcast
 Wind from calm
Wind: Calm
Temperature: 36°F , 2°C
Dew Point: 34°F , 1°C
Humidity: 93%
Barometer: 30.04 inHg , 1017.3 hPa
Summary: Mist
Clouds: Overcast
Visibility: 2 1/2 miles , 4 km
Cloud details: Partly cloudy 1000 ft
Overcast 2400 ft
2018/01/21 16:43 KMBS 211643Z 00000KT 2 1/2SM BR SCT010 OVC024 02/01 A3004 RMK AO2 T00220011
 
KDTW - Detroit/Wayne, Michigan, USA
Distance from station: SSE 117mi, 188km
Updated: Sun, 21-Jan-2018 11:30am EST
Mist, Overcast
Mist, Overcast
 Wind from SW
Wind: SW 5 mph , 7 km/h
Temperature: 39°F , 4°C
Wind Chill: 35°F , 2°C
Dew Point: 37°F , 3°C
Humidity: 93%
Barometer: 30.07 inHg , 1018.3 hPa
Summary: Mist
Clouds: Overcast
Visibility: 1/2 mile , 0.8 km
Cloud details: Overcast 200 ft
2018/01/21 16:30 KDTW 211630Z 22004KT 1/2SM R03R/5500VP6000FT BR OVC002 04/03 A3007 RMK AO2 SFC VIS 1 1/2 T00390033 $
KP58 - Port Hope, Michigan, USA
Distance from station: ENE 30mi, 48km
Updated: Sun, 21-Jan-2018 10:51am EST

 Wind from SSE
Wind: SSE 6 mph , 9 km/h
Temperature: 36°F , 2°C
Wind Chill: 31°F , -1°C
Dew Point: 34°F , 1°C
Humidity: 93%
Barometer: 30.04 inHg , 1017.3 hPa
2018/01/21 15:51 KP58 211551Z AUTO 16005KT 02/01 A3004 RMK AO1 SLP181 T00220006
KCFS - Caro/Tuscola, Michigan, USA
Distance from station: S 31mi, 50km
Updated: Sun, 21-Jan-2018 11:35am EST
Mist, Overcast
Mist, Overcast
 Wind from S
Wind: S 3 mph , 6 km/h
Temperature: 36°F , 2°C
Dew Point: 34°F , 1°C
Humidity: 93%
Barometer: 30.03 inHg , 1016.9 hPa
Summary: Mist
Clouds: Overcast
Visibility: 4 miles , 6 km
Cloud details: Overcast 2000 ft
2018/01/21 16:35 KCFS 211635Z AUTO 17003KT 4SM BR OVC020 02/01 A3003 RMK AO2 T00240011
 
KPHN - Port Huron, Michigan, USA
Distance from station: SSE 81mi, 131km
Updated: Sun, 21-Jan-2018 11:35am EST
Mist, Overcast
Mist, Overcast
 Wind from S
Wind: S 5 mph , 7 km/h
Temperature: 37°F , 3°C
Wind Chill: 33°F , 1°C
Dew Point: 36°F , 2°C
Humidity: 93%
Barometer: 30.06 inHg , 1017.9 hPa
Summary: Mist
Clouds: Overcast
Visibility: 2 miles , 3 km
Cloud details: Overcast 400 ft
2018/01/21 16:35 KPHN 211635Z AUTO 18004KT 2SM BR OVC004 03/02 A3006 RMK AO2
KPTK - Pontiac, Michigan, USA
Distance from station: S 86mi, 138km
Updated: Sun, 21-Jan-2018 10:53am EST
Mist, Overcast
Mist, Overcast
 Wind from SSW
Wind: SSW 5 mph , 7 km/h
Temperature: 37°F , 3°C
Wind Chill: 33°F , 1°C
Dew Point: 36°F , 2°C
Humidity: 93%
Barometer: 30.04 inHg , 1017.3 hPa
Summary: Mist
Clouds: Overcast
Visibility: 1 1/4 miles , 2 km
Cloud details: Overcast 400 ft
2018/01/21 15:53 KPTK 211553Z 21004KT 1 1/4SM BR OVC004 03/02 A3004 RMK AO2 SFC VIS 2 1/2 SLP182 T00280022
KMTC - Selfridge Angb, Michigan, USA
Distance from station: SSE 94mi, 151km
Updated: Sun, 21-Jan-2018 11:19am EST
Mist, Overcast
Mist, Overcast
 Wind from S
Wind: S 9 mph , 15 km/h
Temperature: 37°F , 3°C
Wind Chill: 30°F , -1°C
Dew Point: 36°F , 2°C
Humidity: 93%
Barometer: 30.06 inHg , 1017.9 hPa
Summary: Mist
Clouds: Overcast
Visibility: 1 1/2 miles , 2.4 km
Cloud details: Overcast 200 ft
2018/01/21 16:19 KMTC 211619Z 19008KT 1 1/2SM BR OVC002 03/02 A3006 RMK AO2A WND DATA ESTMD ALSTG ESTMD $